Time;durP1;ratioP1;P1;durP2;ratioP2;P2;SDS_P1;SDS_P2;PMS_P1;PMS_P2;Temp;Humidity;BMP_temperature;BMP_pressure;BME280_temperature;BME280_humidity;BME280_pressure;Samples;Min_cycle;Max_cycle;Signal;HPM_P1;HPM_P2
2023/02/10 00:00:51;;;;;;;15.05;9.43;;;;;;;1.45;100.00;103562.34;10392502;28;20532;-65
2023/02/10 00:05:51;;;;;;;22.70;10.25;;;;;;;1.48;100.00;103564.00;10376982;28;20034;-64
2023/02/10 00:10:52;;;;;;;17.38;10.30;;;;;;;1.55;100.00;103570.78;10377414;28;20038;-65
2023/02/10 00:15:52;;;;;;;12.00;9.55;;;;;;;1.51;100.00;103553.19;10375441;28;20100;-65
2023/02/10 00:20:53;;;;;;;11.80;9.30;;;;;;;1.52;100.00;103554.91;10376553;28;20364;-65
2023/02/10 00:25:53;;;;;;;21.08;10.57;;;;;;;1.55;100.00;103544.94;10376991;28;20041;-64
2023/02/10 00:30:54;;;;;;;20.48;10.43;;;;;;;1.50;100.00;103540.75;10375733;28;20033;-65
2023/02/10 00:35:54;;;;;;;18.23;11.20;;;;;;;1.49;100.00;103541.69;10374928;28;20129;-65
2023/02/10 00:40:55;;;;;;;25.77;11.88;;;;;;;1.43;100.00;103536.66;10374705;28;20473;-65
2023/02/10 00:45:55;;;;;;;16.77;9.98;;;;;;;1.39;100.00;103538.59;10375429;28;20079;-65
2023/02/10 00:50:56;;;;;;;24.65;14.13;;;;;;;1.37;100.00;103543.13;10374881;28;20061;-65
2023/02/10 00:55:56;;;;;;;26.40;13.52;;;;;;;1.30;100.00;103534.56;10375178;28;20405;-65
2023/02/10 01:00:57;;;;;;;25.05;14.55;;;;;;;1.37;100.00;103545.81;10374282;28;20116;-65
2023/02/10 01:05:57;;;;;;;31.02;15.70;;;;;;;1.48;100.00;103548.84;10375814;28;20038;-65
2023/02/10 01:11:05;;;;;;;28.75;16.75;;;;;;;1.52;100.00;103550.44;10375117;28;20048;-65
2023/02/10 01:16:13;;;;;;;32.13;17.42;;;;;;;1.56;100.00;103545.78;10373241;28;20036;-65
2023/02/10 01:21:16;;;;;;;31.10;19.83;;;;;;;1.44;100.00;103557.09;10390059;28;20459;-65
2023/02/10 01:26:16;;;;;;;30.23;18.52;;;;;;;1.39;100.00;103558.16;10389285;28;20140;-65
2023/02/10 01:31:18;;;;;;;27.42;16.60;;;;;;;1.29;100.00;103561.34;10374618;28;20034;-65
2023/02/10 01:36:21;;;;;;;31.17;19.60;;;;;;;1.25;100.00;103559.75;10379800;28;20046;-65
2023/02/10 01:41:22;;;;;;;31.52;17.58;;;;;;;1.13;100.00;103564.72;10373925;28;20046;-65
2023/02/10 01:46:22;;;;;;;29.42;19.08;;;;;;;1.02;100.00;103576.78;10389501;28;20037;-65
2023/02/10 01:51:25;;;;;;;28.83;17.85;;;;;;;0.96;100.00;103577.06;10356618;28;20470;-65
2023/02/10 01:56:26;;;;;;;25.25;16.65;;;;;;;0.93;100.00;103581.63;10372392;28;20030;-65
2023/02/10 02:01:27;;;;;;;26.63;14.23;;;;;;;0.87;100.00;103578.38;10389350;28;20064;-65
2023/02/10 02:06:27;;;;;;;38.65;17.92;;;;;;;0.99;100.00;103571.59;10376041;28;20109;-65
2023/02/10 02:11:37;;;;;;;25.83;18.85;;;;;;;1.02;100.00;103575.03;10379764;28;20401;-65
2023/02/10 02:16:46;;;;;;;25.75;17.23;;;;;;;1.00;100.00;103566.22;10380758;28;20383;-65
2023/02/10 02:22:17;;;;;;;38.83;17.67;;;;;;;0.93;100.00;103559.44;10381650;28;20038;-65
2023/02/10 02:27:59;;;;;;;26.58;17.73;;;;;;;0.87;100.00;103557.03;10381517;28;20084;-65
2023/02/10 02:33:16;;;;;;;28.25;16.35;;;;;;;0.88;100.00;103561.41;10378549;28;20045;-65
2023/02/10 02:38:16;;;;;;;23.23;15.88;;;;;;;0.88;100.00;103570.28;10393099;28;20050;-65
2023/02/10 02:43:17;;;;;;;28.08;13.00;;;;;;;0.93;100.00;103580.78;10379089;28;20430;-65
2023/02/10 02:48:34;;;;;;;33.15;14.40;;;;;;;1.08;100.00;103589.88;10380240;28;20062;-65
2023/02/10 02:53:50;;;;;;;22.50;14.30;;;;;;;1.17;100.00;103597.47;10394928;28;20044;-65
2023/02/10 02:59:03;;;;;;;22.30;14.18;;;;;;;1.18;100.00;103585.84;10377846;28;20117;-64
2023/02/10 03:04:05;;;;;;;20.30;12.50;;;;;;;1.24;100.00;103595.38;10394377;28;20400;-65
2023/02/10 03:09:05;;;;;;;30.42;13.80;;;;;;;1.41;100.00;103607.97;10378941;28;20032;-65
2023/02/10 03:14:06;;;;;;;32.67;15.88;;;;;;;1.52;100.00;103597.63;10379188;28;20129;-65
2023/02/10 03:19:06;;;;;;;26.88;12.75;;;;;;;1.50;100.00;103592.38;10378647;28;20124;-65
2023/02/10 03:24:08;;;;;;;38.78;17.73;;;;;;;1.54;100.00;103590.44;10395089;28;20112;-64
2023/02/10 03:29:10;;;;;;;25.35;14.20;;;;;;;1.49;100.00;103603.97;10393563;28;20466;-65
2023/02/10 03:34:11;;;;;;;22.30;13.23;;;;;;;1.50;100.00;103599.50;10394102;28;20044;-65
2023/02/10 03:39:11;;;;;;;29.27;15.93;;;;;;;1.50;100.00;103597.72;10376205;28;20062;-65
2023/02/10 03:44:12;;;;;;;29.80;15.20;;;;;;;1.34;100.00;103597.56;10378108;28;20071;-64
2023/02/10 03:49:13;;;;;;;31.95;15.98;;;;;;;1.27;100.00;103593.41;10381794;28;20113;-64
2023/02/10 03:54:13;;;;;;;22.95;14.77;;;;;;;1.21;100.00;103592.84;10381116;28;20156;-65
2023/02/10 03:59:14;;;;;;;23.23;14.77;;;;;;;1.14;100.00;103594.94;10377861;28;20038;-65
2023/02/10 04:04:14;;;;;;;35.30;16.80;;;;;;;1.15;100.00;103594.88;10375932;28;20030;-65
2023/02/10 04:09:15;;;;;;;29.33;15.55;;;;;;;1.11;100.00;103606.59;10376810;28;20116;-64
2023/02/10 04:14:15;;;;;;;26.60;17.40;;;;;;;1.15;100.00;103615.38;10376102;28;20116;-65
2023/02/10 04:19:16;;;;;;;38.25;17.25;;;;;;;1.13;100.00;103610.06;10376142;28;20046;-65
2023/02/10 04:24:17;;;;;;;35.00;17.98;;;;;;;1.08;100.00;103609.41;10391673;28;20065;-65
2023/02/10 04:29:17;;;;;;;32.20;20.10;;;;;;;1.10;100.00;103612.03;10375496;28;20065;-65
2023/02/10 04:34:18;;;;;;;36.15;22.25;;;;;;;1.07;100.00;103610.34;10376086;28;20030;-65
2023/02/10 04:39:19;;;;;;;41.03;24.42;;;;;;;1.13;100.00;103601.22;10391383;28;20497;-65
2023/02/10 04:44:19;;;;;;;37.85;24.70;;;;;;;1.17;100.00;103602.78;10375168;28;20033;-65
2023/02/10 04:49:20;;;;;;;49.00;29.23;;;;;;;1.24;100.00;103608.72;10377268;28;20116;-65
2023/02/10 04:54:20;;;;;;;46.20;28.05;;;;;;;1.22;100.00;103598.13;10357215;28;20034;-64
2023/02/10 04:59:21;;;;;;;59.75;30.60;;;;;;;1.30;100.00;103603.09;10359328;28;20087;-65
2023/02/10 05:04:21;;;;;;;39.88;26.98;;;;;;;1.29;100.00;103612.06;10390327;28;20126;-65
2023/02/10 05:09:22;;;;;;;51.50;26.55;;;;;;;1.29;100.00;103599.56;10374838;28;20034;-65
2023/02/10 05:14:22;;;;;;;47.75;28.48;;;;;;;1.27;100.00;103595.22;10374894;28;20042;-64
2023/02/10 05:19:23;;;;;;;50.45;25.05;;;;;;;1.39;100.00;103590.19;10374144;28;20033;-64
2023/02/10 05:24:23;;;;;;;51.30;27.80;;;;;;;1.48;100.00;103590.72;10374428;28;20045;-65
2023/02/10 05:29:24;;;;;;;41.50;26.77;;;;;;;1.56;100.00;103592.09;10374484;28;20513;-65
2023/02/10 05:34:26;;;;;;;49.03;28.33;;;;;;;1.43;100.00;103595.38;10374461;28;20065;-65
2023/02/10 05:39:26;;;;;;;49.25;25.35;;;;;;;1.30;100.00;103592.41;10389745;28;20442;-65
2023/02/10 05:44:28;;;;;;;40.05;21.55;;;;;;;1.22;100.00;103566.09;10381399;28;20053;-65
2023/02/10 05:49:28;;;;;;;30.42;19.83;;;;;;;1.16;100.00;103569.91;10382394;28;20076;-65
2023/02/10 05:54:30;;;;;;;31.92;20.10;;;;;;;1.16;100.00;103563.72;10398486;28;20030;-65
2023/02/10 05:59:30;;;;;;;26.90;20.13;;;;;;;1.29;100.00;103593.38;10403617;28;20040;-64
2023/02/10 06:04:31;;;;;;;28.00;19.75;;;;;;;1.26;100.00;103597.03;10381743;28;20126;-64
2023/02/10 06:09:31;;;;;;;32.25;21.23;;;;;;;1.29;100.00;103596.91;10381358;28;20454;-64
2023/02/10 06:14:32;;;;;;;31.98;19.30;;;;;;;1.34;100.00;103607.34;10381340;28;20041;-65
2023/02/10 06:19:32;;;;;;;22.95;16.27;;;;;;;1.40;100.00;103599.06;10381465;28;20373;-65
2023/02/10 06:24:33;;;;;;;24.65;17.70;;;;;;;1.46;100.00;103609.47;10380240;28;20025;-65
2023/02/10 06:29:34;;;;;;;25.70;17.45;;;;;;;1.38;100.00;103627.66;10395270;28;20390;-64
2023/02/10 06:34:34;;;;;;;24.23;16.48;;;;;;;1.41;100.00;103637.34;10379756;28;20124;-64
2023/02/10 06:39:35;;;;;;;21.70;17.08;;;;;;;1.40;100.00;103644.44;10380073;28;20077;-64
2023/02/10 06:44:36;;;;;;;23.27;16.63;;;;;;;1.42;100.00;103639.06;10380719;28;20070;-64
2023/02/10 06:49:37;;;;;;;21.58;16.38;;;;;;;1.46;100.00;103625.47;10381210;28;20133;-65
2023/02/10 06:54:37;;;;;;;25.08;16.85;;;;;;;1.51;100.00;103622.63;10379191;28;20033;-65
2023/02/10 06:59:38;;;;;;;23.70;16.42;;;;;;;1.56;100.00;103623.25;10380708;28;20099;-65
2023/02/10 07:04:39;;;;;;;24.38;18.05;;;;;;;1.63;100.00;103601.53;10379980;28;20049;-64
2023/02/10 07:09:39;;;;;;;22.45;16.50;;;;;;;1.69;100.00;103612.84;10377797;28;20026;-64
2023/02/10 07:14:39;;;;;;;31.73;16.75;;;;;;;1.66;100.00;103621.91;10379245;28;20113;-64
2023/02/10 07:19:40;;;;;;;25.85;19.92;;;;;;;1.75;100.00;103636.59;10377787;28;20073;-65
2023/02/10 07:24:41;;;;;;;30.83;19.20;;;;;;;1.82;100.00;103640.75;10378724;28;20046;-65
2023/02/10 07:29:41;;;;;;;20.98;18.33;;;;;;;1.92;100.00;103655.38;10378450;28;20363;-65
2023/02/10 07:34:42;;;;;;;28.80;19.52;;;;;;;1.98;100.00;103656.88;10378044;28;20421;-65
2023/02/10 07:39:42;;;;;;;27.35;20.33;;;;;;;2.01;100.00;103646.94;10380050;28;20042;-65
2023/02/10 07:44:43;;;;;;;24.20;18.98;;;;;;;2.12;100.00;103650.88;10377176;28;20585;-65
2023/02/10 07:49:43;;;;;;;32.70;20.92;;;;;;;2.20;100.00;103648.69;10392754;28;20033;-65
2023/02/10 07:54:43;;;;;;;20.90;17.25;;;;;;;2.25;100.00;103647.53;10377824;28;20530;-65
2023/02/10 07:59:44;;;;;;;39.95;22.17;;;;;;;2.33;100.00;103666.75;10359330;28;20088;-65
2023/02/10 08:04:44;;;;;;;24.77;19.08;;;;;;;2.37;100.00;103674.63;10391637;28;20060;-65
2023/02/10 08:09:45;;;;;;;34.35;23.80;;;;;;;2.37;100.00;103686.19;10377409;28;20061;-65
2023/02/10 08:14:46;;;;;;;30.30;22.02;;;;;;;2.33;100.00;103676.59;10380488;28;20046;-65
2023/02/10 08:19:46;;;;;;;27.10;19.50;;;;;;;2.43;100.00;103668.97;10378117;28;20056;-65
2023/02/10 08:24:47;;;;;;;44.63;22.42;;;;;;;2.59;100.00;103685.13;10376931;28;20462;-64
2023/02/10 08:29:47;;;;;;;41.35;23.83;;;;;;;3.59;100.00;103664.69;10375564;28;20061;-65
2023/02/10 08:34:48;;;;;;;30.63;21.10;;;;;;;4.48;100.00;103667.72;10376452;28;20073;-65
2023/02/10 08:39:48;;;;;;;31.45;18.95;;;;;;;4.89;100.00;103671.47;10390478;28;20034;-65
2023/02/10 08:44:49;;;;;;;32.80;24.08;;;;;;;5.16;100.00;103664.53;10374344;28;20034;-65
2023/02/10 08:49:50;;;;;;;34.83;23.98;;;;;;;5.60;100.00;103667.97;10375993;28;20115;-65
2023/02/10 08:54:50;;;;;;;38.92;21.02;;;;;;;5.94;100.00;103670.41;10374259;28;20117;-65
2023/02/10 08:59:51;;;;;;;30.67;23.40;;;;;;;5.95;100.00;103669.44;10373399;28;20037;-65
2023/02/10 09:04:52;;;;;;;22.35;17.65;;;;;;;5.44;100.00;103675.28;10375202;28;20175;-65
2023/02/10 09:09:52;;;;;;;27.30;19.25;;;;;;;5.97;100.00;103673.75;10374425;28;20112;-65
2023/02/10 09:14:53;;;;;;;27.50;20.77;;;;;;;6.64;100.00;103687.28;10374704;28;20442;-65
2023/02/10 09:19:53;;;;;;;41.75;23.65;;;;;;;6.85;100.00;103684.94;10374924;28;20095;-65
2023/02/10 09:24:54;;;;;;;29.52;21.45;;;;;;;7.32;100.00;103690.72;10374130;28;20112;-65
2023/02/10 09:29:55;;;;;;;27.83;21.27;;;;;;;7.44;100.00;103679.06;10372919;28;20070;-65
2023/02/10 09:34:55;;;;;;;30.42;23.17;;;;;;;7.87;100.00;103684.91;10374607;28;20034;-65
2023/02/10 09:39:56;;;;;;;36.50;21.58;;;;;;;8.14;100.00;103678.50;10374556;28;20435;-65
2023/02/10 09:45:02;;;;;;;24.42;17.88;;;;;;;8.36;100.00;103691.28;10373042;28;20513;-65
2023/02/10 09:50:26;;;;;;;24.47;18.13;;;;;;;8.63;100.00;103679.38;10389968;28;20374;-65
2023/02/10 09:55:46;;;;;;;26.67;17.33;;;;;;;8.68;100.00;103669.06;10374221;28;20499;-64
2023/02/10 10:00:48;;;;;;;35.63;15.90;;;;;;;9.03;100.00;103679.88;10387508;28;20116;-65
2023/02/10 10:06:22;;;;;;;14.48;11.02;;;;;;;9.02;100.00;103684.41;10389515;28;20358;-65
2023/02/10 10:11:30;;;;;;;14.35;11.27;;;;;;;9.33;100.00;103687.44;10370065;28;20463;-65
2023/02/10 10:17:09;;;;;;;21.30;12.93;;;;;;;9.67;100.00;103671.22;10388055;28;20552;-65
2023/02/10 10:22:36;;;;;;;20.90;11.65;;;;;;;9.59;100.00;103679.94;10365591;28;20037;-65
2023/02/10 10:27:39;;;;;;;15.40;12.27;;;;;;;9.78;100.00;103666.66;10393943;28;20113;-65
2023/02/10 10:32:51;;;;;;;15.68;9.35;;;;;;;10.11;100.00;103655.88;10381486;28;20418;-65
2023/02/10 10:37:52;;;;;;;13.85;11.68;;;;;;;10.12;100.00;103646.81;10380888;28;20057;-65
2023/02/10 10:42:58;;;;;;;16.92;10.52;;;;;;;10.57;100.00;103652.09;10378620;28;20038;-65
2023/02/10 10:48:11;;;;;;;21.40;9.90;;;;;;;10.33;100.00;103652.28;10380130;28;20127;-65
2023/02/10 10:53:21;;;;;;;15.93;11.60;;;;;;;10.75;100.00;103655.91;10395809;28;20367;-65
2023/02/10 10:58:32;;;;;;;12.95;9.68;;;;;;;11.25;100.00;103647.97;10378677;28;20042;-64
2023/02/10 11:03:33;;;;;;;21.98;9.32;;;;;;;10.09;100.00;103641.63;10363179;28;20029;-65
2023/02/10 11:08:41;;;;;;;22.55;13.00;;;;;;;8.92;100.00;103640.16;10378681;28;20041;-65
2023/02/10 11:13:54;;;;;;;24.27;11.93;;;;;;;8.73;100.00;103650.69;10394248;28;20033;-65
2023/02/10 11:18:56;;;;;;;20.05;12.82;;;;;;;9.73;100.00;103636.41;10361342;28;20045;-65
2023/02/10 11:23:57;;;;;;;17.90;11.68;;;;;;;10.70;100.00;103631.94;10378757;28;20045;-66
2023/02/10 11:29:10;;;;;;;23.27;13.90;;;;;;;11.16;100.00;103627.94;10379125;28;20121;-65
2023/02/10 11:34:22;;;;;;;25.33;14.25;;;;;;;11.28;100.00;103617.00;10393920;28;20030;-65
2023/02/10 11:39:26;;;;;;;20.63;12.95;;;;;;;11.68;100.00;103617.03;10377959;28;20081;-65
2023/02/10 11:44:29;;;;;;;18.83;12.25;;;;;;;11.95;100.00;103615.53;10377231;28;20434;-65
2023/02/10 11:49:33;;;;;;;21.25;11.38;;;;;;;12.01;100.00;103610.41;10377726;28;20037;-65
2023/02/10 11:54:35;;;;;;;15.90;12.15;;;;;;;12.19;100.00;103599.72;10359785;28;20032;-65
2023/02/10 11:59:44;;;;;;;19.38;10.73;;;;;;;12.07;100.00;103585.41;10377848;28;20084;-65
2023/02/10 12:04:54;;;;;;;19.52;9.70;;;;;;;12.21;100.00;103594.13;10392272;28;20124;-65
2023/02/10 12:10:15;;;;;;;16.88;10.43;;;;;;;12.42;100.00;103577.69;10376120;28;20037;-65
2023/02/10 12:15:59;;;;;;;10.20;8.30;;;;;;;12.25;90.10;103598.25;10376386;28;20033;-65
2023/02/10 12:21:02;;;;;;;17.15;9.90;;;;;;;11.61;97.26;103589.59;10373655;28;20041;-65
2023/02/10 12:26:29;;;;;;;18.35;10.65;;;;;;;11.55;100.00;103600.09;10375933;28;20030;-65
2023/02/10 12:32:08;;;;;;;14.02;10.00;;;;;;;11.32;100.00;103591.31;10392787;28;20026;-65
2023/02/10 12:37:36;;;;;;;21.08;10.45;;;;;;;11.15;100.00;103590.97;10376084;28;20054;-65
2023/02/10 12:42:55;;;;;;;21.08;10.90;;;;;;;10.89;100.00;103600.53;10379326;28;20129;-65
2023/02/10 12:48:08;;;;;;;16.10;9.48;;;;;;;11.34;100.00;103608.31;10390668;28;20441;-65
2023/02/10 12:53:12;;;;;;;13.73;9.77;;;;;;;11.67;94.43;103584.56;10375038;28;20029;-65
2023/02/10 12:58:19;;;;;;;20.35;11.07;;;;;;;11.61;100.00;103588.69;10390469;28;20033;-65
2023/02/10 13:03:23;;;;;;;12.27;11.05;;;;;;;11.59;98.87;103569.00;10374122;28;20113;-65
2023/02/10 13:08:26;;;;;;;17.55;9.05;;;;;;;11.64;90.81;103561.28;10390148;28;20096;-65
2023/02/10 13:13:30;;;;;;;19.63;6.57;;;;;;;11.42;84.64;103548.78;10372788;28;20038;-65
2023/02/10 13:18:32;;;;;;;15.90;7.22;;;;;;;11.62;92.38;103538.88;10373549;28;20572;-65
2023/02/10 13:23:51;;;;;;;11.88;6.43;;;;;;;11.68;94.32;103548.28;10372865;28;20480;-65
2023/02/10 13:29:26;;;;;;;17.10;7.32;;;;;;;11.74;94.93;103537.75;10373884;28;20062;-65
2023/02/10 13:34:28;;;;;;;16.15;5.85;;;;;;;11.63;91.89;103529.72;10363815;28;20549;-65
2023/02/10 13:39:30;;;;;;;11.52;8.30;;;;;;;11.54;94.37;103535.97;10372385;28;20050;-65
2023/02/10 13:44:32;;;;;;;18.45;8.82;;;;;;;11.14;92.45;103528.75;10356878;28;20080;-65
2023/02/10 13:49:32;;;;;;;13.95;7.40;;;;;;;10.63;94.55;103541.31;10356417;28;20486;-65
2023/02/10 13:54:35;;;;;;;12.30;7.53;;;;;;;10.64;96.24;103515.94;10373354;28;20109;-65
2023/02/10 13:59:40;;;;;;;16.38;12.02;;;;;;;10.48;95.10;103518.25;10375183;28;20036;-65
2023/02/10 14:04:41;;;;;;;16.33;11.40;;;;;;;10.63;99.94;103521.50;10380966;28;20474;-65
2023/02/10 14:09:42;;;;;;;19.58;12.05;;;;;;;10.70;95.79;103517.25;10380535;28;20382;-65
2023/02/10 14:14:42;;;;;;;18.80;12.95;;;;;;;10.15;98.12;103511.16;10382569;28;20044;-65
2023/02/10 14:19:44;;;;;;;19.63;14.57;;;;;;;10.09;100.00;103504.41;10382473;28;20120;-65
2023/02/10 14:24:44;;;;;;;34.55;15.40;;;;;;;9.76;100.00;103494.56;10379694;28;20520;-65
2023/02/10 14:29:51;;;;;;;23.65;15.88;;;;;;;9.77;100.00;103478.22;10380335;28;20087;-65
2023/02/10 14:35:05;;;;;;;27.65;15.35;;;;;;;9.55;100.00;103486.41;10396545;28;20083;-65
2023/02/10 14:40:06;;;;;;;27.13;14.70;;;;;;;9.40;100.00;103485.81;10396073;28;20096;-65
2023/02/10 14:45:16;;;;;;;25.13;15.00;;;;;;;9.05;100.00;103489.56;10379293;28;20034;-65
2023/02/10 14:50:23;;;;;;;20.88;10.77;;;;;;;8.95;100.00;103480.47;10379702;28;20040;-65
2023/02/10 14:55:27;;;;;;;15.73;9.80;;;;;;;8.89;100.00;103483.69;10381280;28;20044;-65
2023/02/10 15:00:27;;;;;;;17.95;9.52;;;;;;;8.91;100.00;103491.69;10380088;28;20038;-65
2023/02/10 15:05:35;;;;;;;21.75;10.25;;;;;;;8.79;100.00;103498.91;10379925;28;20524;-65
2023/02/10 15:10:39;;;;;;;15.45;9.15;;;;;;;8.75;100.00;103503.69;10378015;28;20034;-65
2023/02/10 15:15:45;;;;;;;17.40;9.95;;;;;;;8.78;100.00;103511.56;10377235;28;20157;-65
2023/02/10 15:20:56;;;;;;;12.47;9.70;;;;;;;8.67;100.00;103502.56;10394086;28;20089;-65
2023/02/10 15:26:19;;;;;;;15.57;9.32;;;;;;;8.50;100.00;103498.50;10379929;28;20057;-65
2023/02/10 15:31:26;;;;;;;17.77;12.07;;;;;;;8.42;100.00;103493.69;10376707;28;20033;-65
2023/02/10 15:36:34;;;;;;;20.50;11.88;;;;;;;8.72;100.00;103493.13;10394274;28;20200;-65
2023/02/10 15:41:43;;;;;;;10.13;8.93;;;;;;;8.72;100.00;103492.28;10392805;28;20488;-65
2023/02/10 15:46:47;;;;;;;15.65;10.63;;;;;;;8.52;100.00;103493.81;10392800;28;20030;-65
2023/02/10 15:51:53;;;;;;;14.45;10.30;;;;;;;8.43;100.00;103489.19;10376277;28;20026;-65
2023/02/10 15:57:03;;;;;;;10.38;8.68;;;;;;;8.29;100.00;103474.00;10376259;28;20061;-65
2023/02/10 16:02:05;;;;;;;20.25;10.38;;;;;;;8.12;100.00;103484.25;10375860;28;20040;-65
2023/02/10 16:07:06;;;;;;;20.85;11.80;;;;;;;7.96;100.00;103477.47;10375651;28;20326;-65
2023/02/10 16:12:06;;;;;;;17.60;12.48;;;;;;;7.89;100.00;103493.28;10375648;28;20168;-65
2023/02/10 16:17:07;;;;;;;21.75;12.05;;;;;;;7.76;100.00;103474.44;10377398;28;20437;-65
2023/02/10 16:22:12;;;;;;;29.30;14.20;;;;;;;7.59;100.00;103469.44;10391984;28;20522;-65
2023/02/10 16:27:12;;;;;;;25.52;13.60;;;;;;;7.58;100.00;103474.00;10389762;28;20109;-65
2023/02/10 16:32:13;;;;;;;24.77;14.35;;;;;;;7.63;100.00;103477.22;10374653;28;20037;-65
2023/02/10 16:37:18;;;;;;;24.52;14.50;;;;;;;7.51;100.00;103471.88;10358435;28;20050;-65
2023/02/10 16:42:18;;;;;;;21.73;15.15;;;;;;;7.52;100.00;103466.34;10390712;28;20034;-65
2023/02/10 16:47:19;;;;;;;21.48;15.02;;;;;;;7.47;100.00;103460.47;10392082;28;20382;-65
2023/02/10 16:52:22;;;;;;;25.27;13.00;;;;;;;7.42;100.00;103462.63;10373681;28;20121;-65
2023/02/10 16:57:23;;;;;;;18.98;12.75;;;;;;;7.46;100.00;103458.72;10373938;28;20038;-65
2023/02/10 17:02:23;;;;;;;26.42;15.45;;;;;;;7.44;100.00;103464.25;10375670;28;20474;-65
2023/02/10 17:07:24;;;;;;;22.48;13.73;;;;;;;7.45;100.00;103474.03;10375190;28;20044;-65
2023/02/10 17:12:24;;;;;;;24.02;15.27;;;;;;;7.42;100.00;103471.56;10376927;28;20545;-65
2023/02/10 17:17:25;;;;;;;31.00;15.25;;;;;;;7.37;100.00;103476.47;10375042;28;20531;-65
2023/02/10 17:22:25;;;;;;;26.15;14.02;;;;;;;7.38;100.00;103461.16;10373912;28;20040;-65
2023/02/10 17:27:26;;;;;;;17.60;11.95;;;;;;;7.33;100.00;103474.94;10356620;28;20030;-65
2023/02/10 17:32:26;;;;;;;19.25;10.48;;;;;;;7.37;100.00;103480.97;10374651;28;20061;-65
2023/02/10 17:37:26;;;;;;;22.88;11.10;;;;;;;7.35;100.00;103491.03;10377792;28;20058;-65
2023/02/10 17:42:27;;;;;;;22.30;7.25;;;;;;;7.30;100.00;103487.78;10382036;28;20083;-65
2023/02/10 17:47:27;;;;;;;14.45;7.75;;;;;;;7.34;100.00;103483.88;10398210;28;20033;-65
2023/02/10 17:52:28;;;;;;;8.73;6.50;;;;;;;7.38;100.00;103488.09;10382817;28;20034;-65
2023/02/10 17:57:28;;;;;;;10.18;6.40;;;;;;;7.44;100.00;103483.13;10382580;28;20059;-65
2023/02/10 18:02:29;;;;;;;7.43;3.70;;;;;;;7.41;100.00;103485.19;10380580;28;20528;-65
2023/02/10 18:07:29;;;;;;;7.65;4.03;;;;;;;7.50;100.00;103475.53;10382249;28;20040;-65
2023/02/10 18:12:30;;;;;;;9.20;4.38;;;;;;;7.47;100.00;103482.03;10397480;28;20128;-65
2023/02/10 18:17:30;;;;;;;14.60;4.32;;;;;;;7.44;100.00;103476.88;10381360;28;20399;-65
2023/02/10 18:22:32;;;;;;;9.98;3.88;;;;;;;7.31;100.00;103455.34;10381774;28;20113;-65
2023/02/10 18:27:32;;;;;;;9.98;3.58;;;;;;;7.27;100.00;103453.84;10379705;28;20030;-65
2023/02/10 18:32:33;;;;;;;20.45;6.03;;;;;;;7.22;100.00;103446.09;10380983;28;20064;-65
2023/02/10 18:37:34;;;;;;;14.77;4.97;;;;;;;7.32;100.00;103464.28;10380563;28;20458;-65
2023/02/10 18:42:35;;;;;;;4.95;4.25;;;;;;;7.23;100.00;103450.50;10380850;28;20100;-65
2023/02/10 18:47:35;;;;;;;22.70;6.30;;;;;;;7.21;100.00;103455.16;10378499;28;20045;-65
2023/02/10 18:52:35;;;;;;;12.93;5.43;;;;;;;7.15;100.00;103457.47;10379782;28;20171;-65
2023/02/10 18:57:36;;;;;;;8.55;4.55;;;;;;;7.16;100.00;103451.09;10379173;28;20423;-65
2023/02/10 19:02:36;;;;;;;13.57;4.75;;;;;;;7.15;100.00;103447.53;10379644;28;20076;-65
2023/02/10 19:07:37;;;;;;;12.10;5.63;;;;;;;7.14;100.00;103431.47;10380252;28;20197;-65
2023/02/10 19:12:37;;;;;;;12.35;4.93;;;;;;;7.18;100.00;103419.50;10380347;28;20030;-65
2023/02/10 19:17:39;;;;;;;21.00;7.18;;;;;;;7.22;100.00;103446.09;10377738;28;20026;-65
2023/02/10 19:22:39;;;;;;;15.40;5.28;;;;;;;7.21;100.00;103455.16;10382212;28;20038;-65
2023/02/10 19:27:40;;;;;;;9.70;5.20;;;;;;;7.19;100.00;103462.50;10378685;28;20034;-65
2023/02/10 19:32:40;;;;;;;28.08;5.85;;;;;;;7.15;100.00;103454.75;10377852;28;20033;-65
2023/02/10 19:37:41;;;;;;;10.88;4.78;;;;;;;7.11;100.00;103450.53;10392920;28;20057;-65
2023/02/10 19:42:41;;;;;;;12.32;5.75;;;;;;;7.13;100.00;103460.25;10377450;28;20042;-65
2023/02/10 19:47:41;;;;;;;8.15;5.00;;;;;;;7.16;100.00;103467.25;10378837;28;20080;-65
2023/02/10 19:52:42;;;;;;;8.75;5.60;;;;;;;7.11;100.00;103472.97;10393046;28;20524;-66
2023/02/10 19:57:42;;;;;;;16.48;4.50;;;;;;;7.14;100.00;103456.56;10393163;28;20482;-65
2023/02/10 20:02:43;;;;;;;7.85;5.60;;;;;;;7.12;100.00;103454.97;10324632;28;20056;-65
2023/02/10 20:07:43;;;;;;;22.02;5.20;;;;;;;7.14;100.00;103444.94;10376770;28;20128;-65
2023/02/10 20:12:44;;;;;;;17.38;5.28;;;;;;;7.11;100.00;103435.22;10376876;28;20120;-65
2023/02/10 20:17:44;;;;;;;28.40;6.47;;;;;;;7.13;100.00;103427.91;10376727;28;20030;-65
2023/02/10 20:22:44;;;;;;;22.70;5.07;;;;;;;7.12;100.00;103417.25;10377225;28;20044;-64
2023/02/10 20:27:45;;;;;;;16.25;4.10;;;;;;;7.11;100.00;103386.72;10375497;28;20034;-65
2023/02/10 20:32:46;;;;;;;19.75;5.60;;;;;;;7.13;100.00;103392.88;10376754;28;20065;-64
2023/02/10 20:37:46;;;;;;;18.15;6.00;;;;;;;7.14;100.00;103399.97;10376020;28;20578;-65
2023/02/10 20:42:48;;;;;;;33.83;5.47;;;;;;;7.05;100.00;103392.59;10390913;28;20093;-65
2023/02/10 20:47:49;;;;;;;24.45;5.85;;;;;;;7.10;100.00;103393.09;10376789;28;20060;-65
2023/02/10 20:52:49;;;;;;;13.95;4.70;;;;;;;7.08;100.00;103395.03;10390987;28;20474;-65
2023/02/10 20:57:50;;;;;;;15.52;5.45;;;;;;;7.11;100.00;103423.59;10375757;28;20544;-65
2023/02/10 21:02:50;;;;;;;10.13;4.35;;;;;;;7.07;100.00;103422.13;10375229;28;20125;-65
2023/02/10 21:07:51;;;;;;;16.70;4.45;;;;;;;7.10;100.00;103422.75;10373910;28;20127;-66
2023/02/10 21:12:52;;;;;;;18.20;5.03;;;;;;;7.08;100.00;103446.22;10374308;28;20048;-65
2023/02/10 21:17:52;;;;;;;23.10;6.22;;;;;;;7.15;100.00;103460.16;10376491;28;20034;-65
2023/02/10 21:22:52;;;;;;;24.17;6.25;;;;;;;7.20;100.00;103466.91;10373762;28;20038;-65
2023/02/10 21:27:53;;;;;;;19.00;6.55;;;;;;;7.22;100.00;103469.50;10375247;28;20037;-65
2023/02/10 21:32:53;;;;;;;22.08;6.18;;;;;;;7.26;100.00;103456.66;10375927;28;20041;-65
2023/02/10 21:37:54;;;;;;;19.90;6.28;;;;;;;7.27;100.00;103466.44;10391816;28;20124;-65
2023/02/10 21:42:54;;;;;;;31.15;6.00;;;;;;;7.27;100.00;103463.75;10374281;28;20033;-65
2023/02/10 21:47:54;;;;;;;12.32;5.32;;;;;;;7.31;100.00;103476.06;10389422;28;20045;-65
2023/02/10 21:52:55;;;;;;;23.40;5.75;;;;;;;7.28;100.00;103477.13;10373591;28;20108;-65
2023/02/10 21:57:55;;;;;;;26.55;6.95;;;;;;;7.33;100.00;103468.69;10358301;28;20160;-65
2023/02/10 22:02:56;;;;;;;18.70;5.15;;;;;;;7.33;100.00;103468.69;10374037;28;20114;-65
2023/02/10 22:07:56;;;;;;;16.70;6.10;;;;;;;7.31;100.00;103476.06;10373941;28;20109;-66
2023/02/10 22:12:57;;;;;;;19.25;5.50;;;;;;;7.20;100.00;103466.03;10372002;28;20387;-65
2023/02/10 22:17:57;;;;;;;29.42;6.47;;;;;;;7.06;100.00;103458.97;10372974;28;20048;-65
2023/02/10 22:22:58;;;;;;;15.82;4.45;;;;;;;7.00;100.00;103470.19;10375024;28;20041;-65
2023/02/10 22:27:58;;;;;;;15.93;5.43;;;;;;;7.01;100.00;103458.44;10396272;28;20041;-65
2023/02/10 22:32:59;;;;;;;24.85;4.82;;;;;;;7.10;100.00;103462.31;10380939;28;20123;-65
2023/02/10 22:38:02;;;;;;;19.85;5.45;;;;;;;7.17;100.00;103455.50;10379144;28;20089;-65
2023/02/10 22:43:02;;;;;;;36.88;6.22;;;;;;;7.15;100.00;103443.97;10379229;28;20466;-66
2023/02/10 22:48:03;;;;;;;13.95;5.30;;;;;;;7.15;100.00;103444.84;10380188;28;20030;-65